createdAt,value
2023-01-17T00:01:29.483Z,21.80
2023-01-17T00:04:15.618Z,19.65
2023-01-17T00:07:01.794Z,20.95
2023-01-17T00:09:48.134Z,20.88
2023-01-17T00:12:15.823Z,23.42
2023-01-17T00:14:43.727Z,20.23
2023-01-17T00:17:11.302Z,23.50
2023-01-17T00:19:57.515Z,22.85
2023-01-17T00:22:46.085Z,20.05
2023-01-17T00:25:39.934Z,23.50
2023-01-17T00:28:07.865Z,21.10
2023-01-17T00:30:35.986Z,21.52
2023-01-17T00:33:03.633Z,20.52
2023-01-17T00:35:32.409Z,19.27
2023-01-17T00:38:17.390Z,21.55
2023-01-17T00:40:46.011Z,19.00
2023-01-17T00:43:33.818Z,20.62
2023-01-17T00:46:20.338Z,19.15
2023-01-17T00:49:06.605Z,20.90
2023-01-17T00:51:53.950Z,20.17
2023-01-17T00:54:40.663Z,19.30
2023-01-17T00:57:27.348Z,19.60
2023-01-17T01:00:13.938Z,21.00
2023-01-17T01:03:00.597Z,21.30
2023-01-17T01:05:46.963Z,17.92
2023-01-17T01:08:41.027Z,23.20
2023-01-17T01:11:29.450Z,19.27
2023-01-17T01:14:15.905Z,19.62
2023-01-17T01:17:01.948Z,17.23
2023-01-17T01:19:48.668Z,17.60
2023-01-17T01:22:34.983Z,21.13
2023-01-17T01:25:21.986Z,16.95
2023-01-17T01:28:08.113Z,20.90
2023-01-17T01:30:54.451Z,17.92
2023-01-17T01:33:21.949Z,18.52
2023-01-17T01:35:54.513Z,16.33
2023-01-17T01:38:24.257Z,16.37
2023-01-17T01:40:54.507Z,17.10
2023-01-17T01:43:45.273Z,17.33
2023-01-17T01:46:35.799Z,17.33
2023-01-17T01:49:14.880Z,16.87
2023-01-17T01:51:46.048Z,14.52
2023-01-17T01:54:50.189Z,17.80
2023-01-17T01:57:21.104Z,15.15
2023-01-17T02:00:11.684Z,15.90
2023-01-17T02:02:39.379Z,19.27
2023-01-17T02:05:09.233Z,18.25
2023-01-17T02:07:43.423Z,18.25
2023-01-17T02:10:12.846Z,15.68
2023-01-17T02:12:40.527Z,17.45
2023-01-17T02:15:08.704Z,15.63
2023-01-17T02:17:58.003Z,19.02
2023-01-17T02:20:55.244Z,15.70
2023-01-17T02:23:38.475Z,16.67
2023-01-17T02:26:34.530Z,14.70
2023-01-17T02:29:20.396Z,17.77
2023-01-17T02:31:51.986Z,16.80
2023-01-17T02:34:35.553Z,17.83
2023-01-17T02:37:28.749Z,16.95
2023-01-17T02:40:00.638Z,16.50
2023-01-17T02:42:36.357Z,15.80
2023-01-17T02:45:04.847Z,18.52
2023-01-17T02:47:32.640Z,21.55
2023-01-17T02:50:07.858Z,14.20
2023-01-17T02:53:06.571Z,13.77
2023-01-17T02:55:39.068Z,12.57
2023-01-17T02:58:28.666Z,16.02
2023-01-17T03:00:59.208Z,20.35
2023-01-17T03:03:52.577Z,20.12
2023-01-17T03:06:40.211Z,19.20
2023-01-17T03:09:09.008Z,18.67
2023-01-17T03:11:36.911Z,16.42
2023-01-17T03:14:04.501Z,14.50
2023-01-17T03:16:33.493Z,17.02
2023-01-17T03:19:01.391Z,13.15
2023-01-17T03:21:28.991Z,12.90
2023-01-17T03:23:56.830Z,12.73
2023-01-17T03:26:24.418Z,12.85
2023-01-17T03:28:52.028Z,13.90
2023-01-17T03:31:20.083Z,11.80
2023-01-17T03:33:47.633Z,12.37
2023-01-17T03:36:15.292Z,11.02
2023-01-17T03:38:43.243Z,13.65
2023-01-17T03:41:10.820Z,12.63
2023-01-17T03:43:38.825Z,12.07
2023-01-17T03:46:08.458Z,13.50
2023-01-17T03:48:36.243Z,14.43
2023-01-17T03:51:04.045Z,12.90
2023-01-17T03:53:31.829Z,11.63
2023-01-17T03:56:00.345Z,11.45
2023-01-17T03:58:27.855Z,9.87
2023-01-17T04:00:55.829Z,12.73
2023-01-17T04:03:23.865Z,13.25
2023-01-17T04:05:51.868Z,12.35
2023-01-17T04:08:19.486Z,10.82
2023-01-17T04:10:47.471Z,10.10
2023-01-17T04:13:16.827Z,9.30
2023-01-17T04:15:46.134Z,8.93
2023-01-17T04:18:14.379Z,9.63
2023-01-17T04:20:42.092Z,9.50
2023-01-17T04:23:09.592Z,8.17
2023-01-17T04:25:37.523Z,9.48
2023-01-17T04:28:06.021Z,8.77
2023-01-17T04:30:34.026Z,8.55
2023-01-17T04:33:02.007Z,9.52
2023-01-17T04:35:31.023Z,9.53
2023-01-17T04:37:58.534Z,9.93
2023-01-17T04:40:26.608Z,8.07
2023-01-17T04:42:54.437Z,10.13
2023-01-17T04:45:22.211Z,10.55
2023-01-17T04:47:50.238Z,9.17
2023-01-17T04:50:18.362Z,8.77
2023-01-17T04:52:45.914Z,7.62
2023-01-17T04:55:13.901Z,9.27
2023-01-17T04:57:41.475Z,10.80
2023-01-17T05:00:09.561Z,9.97
2023-01-17T05:02:37.443Z,10.07
2023-01-17T05:05:05.398Z,9.32
2023-01-17T05:07:35.640Z,11.35
2023-01-17T05:10:04.572Z,9.73
2023-01-17T05:12:32.070Z,11.30
2023-01-17T05:14:59.540Z,9.35
2023-01-17T05:17:27.430Z,11.38
2023-01-17T05:19:55.056Z,10.02
2023-01-17T05:22:22.588Z,10.93
2023-01-17T05:24:50.415Z,9.13
2023-01-17T05:27:17.995Z,10.25
2023-01-17T05:29:45.850Z,10.05
2023-01-17T05:32:13.690Z,10.15
2023-01-17T05:34:41.158Z,11.27
2023-01-17T05:37:08.852Z,11.27
2023-01-17T05:39:36.768Z,8.57
2023-01-17T05:42:04.484Z,8.68
2023-01-17T05:44:32.144Z,10.38
2023-01-17T05:47:00.005Z,10.75
2023-01-17T05:49:27.623Z,10.67
2023-01-17T05:51:55.533Z,9.88
2023-01-17T05:54:23.375Z,9.88
2023-01-17T05:56:50.946Z,11.63
2023-01-17T05:59:28.584Z,12.55
2023-01-17T06:02:04.054Z,12.90
2023-01-17T06:04:31.967Z,14.82
2023-01-17T06:06:59.622Z,10.05
2023-01-17T06:09:27.225Z,12.05
2023-01-17T06:11:55.090Z,11.93
2023-01-17T06:14:22.640Z,10.60
2023-01-17T06:16:50.222Z,11.63
2023-01-17T06:19:18.156Z,10.93
2023-01-17T06:21:45.812Z,13.57
2023-01-17T06:24:13.514Z,11.60
2023-01-17T06:26:43.752Z,14.07
2023-01-17T06:29:12.403Z,13.82
2023-01-17T06:31:40.305Z,13.68
2023-01-17T06:34:08.287Z,11.60
2023-01-17T06:36:35.817Z,11.05
2023-01-17T06:39:03.775Z,13.63
2023-01-17T06:41:32.184Z,14.98
2023-01-17T06:43:59.780Z,15.70
2023-01-17T06:46:27.564Z,15.82
2023-01-17T06:48:56.031Z,14.57
2023-01-17T06:51:23.509Z,13.50
2023-01-17T06:53:51.221Z,10.90
2023-01-17T06:56:19.404Z,12.18
2023-01-17T06:58:50.752Z,12.18
2023-01-17T07:01:19.097Z,12.15
2023-01-17T07:03:47.276Z,14.07
2023-01-17T07:06:14.884Z,12.85
2023-01-17T07:08:42.480Z,11.95
2023-01-17T07:11:10.773Z,13.13
2023-01-17T07:13:38.657Z,12.73
2023-01-17T07:16:07.667Z,12.87
2023-01-17T07:18:35.588Z,14.77
2023-01-17T07:21:03.059Z,15.55
2023-01-17T07:23:30.666Z,14.38
2023-01-17T07:25:59.812Z,15.32
2023-01-17T07:28:28.133Z,14.47
2023-01-17T07:30:55.603Z,10.90
2023-01-17T07:33:23.620Z,12.25
2023-01-17T07:35:54.520Z,12.15
2023-01-17T07:38:22.084Z,10.70
2023-01-17T07:40:49.983Z,9.03
2023-01-17T07:43:17.739Z,9.38
2023-01-17T07:45:52.060Z,11.05
2023-01-17T07:48:21.966Z,10.43
2023-01-17T07:50:57.116Z,9.88
2023-01-17T07:53:27.716Z,9.00
2023-01-17T07:55:55.627Z,9.57
2023-01-17T07:58:23.234Z,8.30
2023-01-17T08:00:51.274Z,8.20
2023-01-17T08:03:20.339Z,8.00
2023-01-17T08:05:55.726Z,8.23
2023-01-17T08:08:28.230Z,7.57
2023-01-17T08:10:55.930Z,7.50
2023-01-17T08:13:23.983Z,6.80
2023-01-17T08:15:51.838Z,5.50
2023-01-17T08:18:19.541Z,5.78
2023-01-17T08:20:47.565Z,7.35
2023-01-17T08:23:15.617Z,6.43
2023-01-17T08:25:43.162Z,7.45
2023-01-17T08:28:11.190Z,6.83
2023-01-17T08:30:39.231Z,5.37
2023-01-17T08:33:10.210Z,5.80
2023-01-17T08:35:38.406Z,5.43
2023-01-17T08:38:06.175Z,5.35
2023-01-17T08:40:33.827Z,5.20
2023-01-17T08:43:01.708Z,5.43
2023-01-17T08:45:29.513Z,4.37
2023-01-17T08:47:58.659Z,5.55
2023-01-17T08:50:27.105Z,4.25
2023-01-17T08:53:00.958Z,4.13
2023-01-17T08:55:29.301Z,5.30
2023-01-17T08:57:57.437Z,6.22
2023-01-17T09:00:25.203Z,4.78
2023-01-17T09:02:53.942Z,4.87
2023-01-17T09:05:21.538Z,5.70
2023-01-17T09:07:49.154Z,6.87
2023-01-17T09:10:17.205Z,5.22
2023-01-17T09:12:44.775Z,4.93
2023-01-17T09:15:15.670Z,7.12
2023-01-17T09:17:43.772Z,4.67
2023-01-17T09:20:12.023Z,4.72
2023-01-17T09:22:39.933Z,6.15
2023-01-17T09:25:08.498Z,5.47
2023-01-17T09:27:36.198Z,5.68
2023-01-17T09:30:04.682Z,5.43
2023-01-17T09:32:32.981Z,10.25
2023-01-17T09:35:00.849Z,5.90
2023-01-17T09:37:28.656Z,5.82
2023-01-17T09:39:57.737Z,4.95
2023-01-17T09:42:42.517Z,4.13
2023-01-17T09:45:16.660Z,5.43
2023-01-17T09:47:46.626Z,8.35
2023-01-17T09:50:23.455Z,5.22
2023-01-17T09:53:00.601Z,5.32
2023-01-17T09:55:44.043Z,5.40
2023-01-17T09:58:21.627Z,4.60
2023-01-17T10:01:01.400Z,4.12
2023-01-17T10:03:56.017Z,4.87
2023-01-17T10:07:14.609Z,5.03
2023-01-17T10:09:51.317Z,4.23
2023-01-17T10:12:29.799Z,4.20
2023-01-17T10:15:10.448Z,3.33
2023-01-17T10:17:47.134Z,4.45
2023-01-17T10:20:42.092Z,4.97
2023-01-17T10:23:43.217Z,4.27
2023-01-17T10:26:17.563Z,8.52
2023-01-17T10:28:51.388Z,7.32
2023-01-17T10:31:24.707Z,4.68
2023-01-17T10:33:56.354Z,6.12
2023-01-17T10:36:28.170Z,5.03
2023-01-17T10:38:59.543Z,4.43
2023-01-17T10:41:34.068Z,4.78
2023-01-17T10:44:12.104Z,5.30
2023-01-17T10:47:12.267Z,4.20
2023-01-17T10:49:43.446Z,4.10
2023-01-17T10:52:39.035Z,5.53
2023-01-17T10:55:12.992Z,4.60
2023-01-17T10:57:47.936Z,5.40
2023-01-17T11:00:41.921Z,4.28
2023-01-17T11:03:15.058Z,5.03
2023-01-17T11:05:43.966Z,3.35
2023-01-17T11:08:14.429Z,4.45
2023-01-17T11:10:43.186Z,6.57
2023-01-17T11:13:32.653Z,7.30
2023-01-17T11:16:10.117Z,9.10
2023-01-17T11:18:39.693Z,5.32
2023-01-17T11:21:12.307Z,7.70
2023-01-17T11:23:44.297Z,5.95
2023-01-17T11:27:02.503Z,7.55
2023-01-17T11:29:39.017Z,12.77
2023-01-17T11:32:31.145Z,14.63
2023-01-17T11:35:16.934Z,11.45
2023-01-17T11:37:58.554Z,14.95
2023-01-17T11:40:36.399Z,12.93
2023-01-17T11:43:15.500Z,6.20
2023-01-17T11:45:43.075Z,8.60
2023-01-17T11:48:17.251Z,5.10
2023-01-17T11:50:56.330Z,5.55
2023-01-17T11:53:30.793Z,44.38
2023-01-17T11:56:10.490Z,15.80
2023-01-17T11:58:43.536Z,18.10
2023-01-17T12:01:46.843Z,14.15
2023-01-17T12:04:36.653Z,7.45
2023-01-17T12:07:07.603Z,5.85
2023-01-17T12:10:02.334Z,9.63
2023-01-17T12:13:01.812Z,5.95
2023-01-17T12:15:39.593Z,5.65
2023-01-17T12:18:36.635Z,4.53
2023-01-17T12:21:04.609Z,5.32
2023-01-17T12:23:48.110Z,4.73
2023-01-17T12:26:42.643Z,5.75
2023-01-17T12:29:39.127Z,15.02
2023-01-17T12:32:28.627Z,6.35
2023-01-17T12:35:12.035Z,8.43
2023-01-17T12:37:42.414Z,6.30
2023-01-17T12:40:13.170Z,8.00
2023-01-17T12:42:44.636Z,6.93
2023-01-17T12:45:17.586Z,5.68
2023-01-17T12:47:49.267Z,7.43
2023-01-17T12:50:32.977Z,7.23
2023-01-17T12:53:23.066Z,9.90
2023-01-17T12:55:59.372Z,20.60
2023-01-17T12:58:45.343Z,31.25
2023-01-17T13:01:29.954Z,21.20
2023-01-17T13:04:16.695Z,31.97
2023-01-17T13:06:59.953Z,13.57
2023-01-17T13:09:39.811Z,13.48
2023-01-17T13:12:16.886Z,35.78
2023-01-17T13:14:48.562Z,35.08
2023-01-17T13:17:24.984Z,18.60
2023-01-17T13:20:47.209Z,26.92
2023-01-17T13:24:03.427Z,93.15
2023-01-17T13:26:55.674Z,52.97
2023-01-17T13:29:52.366Z,21.42
2023-01-17T13:32:49.405Z,25.50
2023-01-17T13:35:27.225Z,30.62
2023-01-17T13:38:09.700Z,24.63
2023-01-17T13:40:37.588Z,23.62
2023-01-17T13:43:11.476Z,19.10
2023-01-17T13:45:39.560Z,36.57
2023-01-17T13:48:25.835Z,26.12
2023-01-17T13:50:58.594Z,24.63
2023-01-17T13:53:31.476Z,15.23
2023-01-17T13:56:22.447Z,17.52
2023-01-17T13:58:50.651Z,15.50
2023-01-17T14:01:24.586Z,50.28
2023-01-17T14:03:52.784Z,54.20
2023-01-17T14:06:35.592Z,36.80
2023-01-17T14:09:21.343Z,16.80
2023-01-17T14:12:01.652Z,9.93
2023-01-17T14:14:41.688Z,7.70
2023-01-17T14:17:28.269Z,8.25
2023-01-17T14:20:01.827Z,9.77
2023-01-17T14:22:33.330Z,8.20
2023-01-17T14:25:17.550Z,7.33
2023-01-17T14:28:01.313Z,6.72
2023-01-17T14:30:31.997Z,9.05
2023-01-17T14:33:02.271Z,6.30
2023-01-17T14:35:36.725Z,6.60
2023-01-17T14:38:16.415Z,7.03
2023-01-17T14:40:50.876Z,4.45
2023-01-17T14:43:24.590Z,5.12
2023-01-17T14:46:08.162Z,35.95
2023-01-17T14:48:39.706Z,24.10
2023-01-17T14:51:19.108Z,22.53
2023-01-17T14:54:00.341Z,16.95
2023-01-17T14:56:29.749Z,15.32
2023-01-17T14:59:14.606Z,12.40
2023-01-17T15:02:06.278Z,16.77
2023-01-17T15:04:39.617Z,31.07
2023-01-17T15:07:14.481Z,11.43
2023-01-17T15:09:43.204Z,11.30
2023-01-17T15:12:13.847Z,13.80
2023-01-17T15:14:43.968Z,17.08
2023-01-17T15:17:24.851Z,15.80
2023-01-17T15:20:03.824Z,20.62
2023-01-17T15:22:32.426Z,15.43
2023-01-17T15:25:00.306Z,19.90
2023-01-17T15:27:28.249Z,21.50
2023-01-17T15:30:01.489Z,19.90
2023-01-17T15:32:32.600Z,40.72
2023-01-17T15:35:02.919Z,69.72
2023-01-17T15:37:32.824Z,48.25
2023-01-17T15:40:07.082Z,31.92
2023-01-17T15:42:36.680Z,31.53
2023-01-17T15:45:06.387Z,28.12
2023-01-17T15:47:38.943Z,32.85
2023-01-17T15:50:28.581Z,19.37
2023-01-17T15:53:05.288Z,16.30
2023-01-17T15:55:38.269Z,15.40
2023-01-17T15:58:25.454Z,16.92
2023-01-17T16:00:53.943Z,13.75
2023-01-17T16:03:23.611Z,10.85
2023-01-17T16:05:53.092Z,16.12
2023-01-17T16:08:38.613Z,15.17
2023-01-17T16:11:08.078Z,15.02
2023-01-17T16:13:38.749Z,20.70
2023-01-17T16:16:17.753Z,18.00
2023-01-17T16:18:46.863Z,17.12
2023-01-17T16:21:26.534Z,17.80
2023-01-17T16:23:54.750Z,18.98
2023-01-17T16:26:22.817Z,14.23
2023-01-17T16:28:50.544Z,16.45
2023-01-17T16:31:18.502Z,16.58
2023-01-17T16:33:48.898Z,11.67
2023-01-17T16:36:17.110Z,11.75
2023-01-17T16:38:45.781Z,15.35
2023-01-17T16:41:13.531Z,13.13
2023-01-17T16:43:41.152Z,14.27
2023-01-17T16:46:11.217Z,13.03
2023-01-17T16:48:38.762Z,15.18
2023-01-17T16:51:07.760Z,17.02
2023-01-17T16:53:36.592Z,17.05
2023-01-17T16:56:12.017Z,17.33
2023-01-17T16:58:40.296Z,12.97
2023-01-17T17:01:15.478Z,12.68
2023-01-17T17:03:44.102Z,15.45
2023-01-17T17:06:12.550Z,15.70
2023-01-17T17:08:40.300Z,15.30
2023-01-17T17:11:15.384Z,10.17
2023-01-17T17:13:44.710Z,24.70
2023-01-17T17:16:24.192Z,31.58
2023-01-17T17:18:57.247Z,14.73
2023-01-17T17:21:25.818Z,22.25
2023-01-17T17:23:58.285Z,16.33
2023-01-17T17:26:35.084Z,13.10
2023-01-17T17:29:03.561Z,13.10
2023-01-17T17:31:31.894Z,10.35
2023-01-17T17:34:01.124Z,11.52
2023-01-17T17:36:28.998Z,11.53
2023-01-17T17:38:57.729Z,8.48
2023-01-17T17:41:27.282Z,10.68
2023-01-17T17:43:55.369Z,10.20
2023-01-17T17:46:24.575Z,13.95
2023-01-17T17:48:52.372Z,9.40
2023-01-17T17:51:34.709Z,9.90
2023-01-17T17:54:05.190Z,11.93
2023-01-17T17:56:34.106Z,15.68
2023-01-17T17:59:03.297Z,12.68
2023-01-17T18:01:31.377Z,10.00
2023-01-17T18:04:03.600Z,11.48
2023-01-17T18:06:31.562Z,10.20
2023-01-17T18:08:59.378Z,10.30
2023-01-17T18:11:28.004Z,10.18
2023-01-17T18:13:57.137Z,13.43
2023-01-17T18:16:28.609Z,12.00
2023-01-17T18:18:57.658Z,8.73
2023-01-17T18:21:31.620Z,9.50
2023-01-17T18:24:01.785Z,11.27
2023-01-17T18:26:32.433Z,9.43
2023-01-17T18:29:01.511Z,9.85
2023-01-17T18:31:30.511Z,10.82
2023-01-17T18:34:00.338Z,8.65
2023-01-17T18:36:28.906Z,9.00
2023-01-17T18:38:57.270Z,9.40
2023-01-17T18:41:27.210Z,10.05
2023-01-17T18:43:57.877Z,10.88
2023-01-17T18:46:26.587Z,9.50
2023-01-17T18:48:57.401Z,10.20
2023-01-17T18:51:26.361Z,9.27
2023-01-17T18:53:56.055Z,8.75
2023-01-17T18:56:24.031Z,12.02
2023-01-17T18:58:51.519Z,10.95
2023-01-17T19:01:22.735Z,10.13
2023-01-17T19:03:52.594Z,10.10
2023-01-17T19:06:24.192Z,10.02
2023-01-17T19:08:52.139Z,10.32
2023-01-17T19:11:22.111Z,10.30
2023-01-17T19:13:50.391Z,8.05
2023-01-17T19:16:31.682Z,9.90
2023-01-17T19:19:05.239Z,9.95
2023-01-17T19:21:33.533Z,9.88
2023-01-17T19:24:01.755Z,9.63
2023-01-17T19:26:30.103Z,9.75
2023-01-17T19:29:00.037Z,8.30
2023-01-17T19:31:30.357Z,10.00
2023-01-17T19:33:59.533Z,10.15
2023-01-17T19:36:29.437Z,9.90
2023-01-17T19:39:06.196Z,10.77
2023-01-17T19:41:35.553Z,12.23
2023-01-17T19:44:06.045Z,9.80
2023-01-17T19:46:33.868Z,10.77
2023-01-17T19:49:02.195Z,11.82
2023-01-17T19:51:30.117Z,8.45
2023-01-17T19:54:01.370Z,9.33
2023-01-17T19:56:29.653Z,9.25
2023-01-17T19:59:01.166Z,10.98
2023-01-17T20:01:31.881Z,10.48
2023-01-17T20:04:01.538Z,12.20
2023-01-17T20:06:32.246Z,10.03
2023-01-17T20:09:00.397Z,12.25
2023-01-17T20:11:28.589Z,10.70
2023-01-17T20:13:57.654Z,11.15
2023-01-17T20:16:27.850Z,12.00
2023-01-17T20:18:55.811Z,14.00
2023-01-17T20:21:26.705Z,11.43
2023-01-17T20:23:56.790Z,11.38
2023-01-17T20:26:31.170Z,12.20
2023-01-17T20:28:59.217Z,12.20
2023-01-17T20:31:28.615Z,14.00
2023-01-17T20:33:56.748Z,10.05
2023-01-17T20:36:27.065Z,13.10
2023-01-17T20:38:57.089Z,10.20
2023-01-17T20:41:29.822Z,12.15
2023-01-17T20:43:59.238Z,12.37
2023-01-17T20:46:31.408Z,11.40
2023-01-17T20:49:01.219Z,13.55
2023-01-17T20:51:29.784Z,11.50
2023-01-17T20:54:00.821Z,14.38
2023-01-17T20:56:30.213Z,11.60
2023-01-17T20:58:58.147Z,11.30
2023-01-17T21:01:26.092Z,13.77
2023-01-17T21:03:54.077Z,11.18
2023-01-17T21:06:23.336Z,11.75
2023-01-17T21:08:51.463Z,12.47
2023-01-17T21:11:21.888Z,12.13
2023-01-17T21:13:51.334Z,13.73
2023-01-17T21:16:21.223Z,11.65
2023-01-17T21:18:51.101Z,14.05
2023-01-17T21:21:22.171Z,11.03
2023-01-17T21:23:51.556Z,12.13
2023-01-17T21:26:20.639Z,11.73
2023-01-17T21:28:49.476Z,12.20
2023-01-17T21:31:23.440Z,11.32
2023-01-17T21:33:51.393Z,11.63
2023-01-17T21:36:20.051Z,9.70
2023-01-17T21:38:52.513Z,11.70
2023-01-17T21:41:21.954Z,12.95
2023-01-17T21:43:53.920Z,14.02
2023-01-17T21:46:22.303Z,12.03
2023-01-17T21:48:49.933Z,15.48
2023-01-17T21:51:19.596Z,10.40
2023-01-17T21:53:47.656Z,9.85
2023-01-17T21:56:33.757Z,10.85
2023-01-17T21:59:01.589Z,10.70
2023-01-17T22:01:32.347Z,12.02
2023-01-17T22:04:02.860Z,10.77
2023-01-17T22:06:34.340Z,12.00
2023-01-17T22:09:02.189Z,9.57
2023-01-17T22:11:32.735Z,10.47
2023-01-17T22:14:00.324Z,8.52
2023-01-17T22:16:28.335Z,8.98
2023-01-17T22:18:56.095Z,11.50
2023-01-17T22:21:28.442Z,11.43
2023-01-17T22:23:58.303Z,9.90
2023-01-17T22:26:28.608Z,9.60
2023-01-17T22:28:59.255Z,9.85
2023-01-17T22:31:28.415Z,9.93
2023-01-17T22:34:03.812Z,9.77
2023-01-17T22:36:34.868Z,11.67
2023-01-17T22:39:02.695Z,8.38
2023-01-17T22:41:32.136Z,9.85
2023-01-17T22:44:02.201Z,9.52
2023-01-17T22:46:32.482Z,10.25
2023-01-17T22:49:00.377Z,8.73
2023-01-17T22:51:28.533Z,8.90
2023-01-17T22:53:58.412Z,8.45
2023-01-17T22:56:27.903Z,8.60
2023-01-17T22:58:55.752Z,8.52
2023-01-17T23:01:31.325Z,8.97
2023-01-17T23:04:01.361Z,10.23
2023-01-17T23:06:35.913Z,8.30
2023-01-17T23:09:06.518Z,7.55
2023-01-17T23:11:46.303Z,9.13
2023-01-17T23:14:51.746Z,8.80
2023-01-17T23:17:39.120Z,8.75
2023-01-17T23:20:08.682Z,8.32
2023-01-17T23:22:37.063Z,8.20
2023-01-17T23:25:11.045Z,8.38
2023-01-17T23:28:02.883Z,10.03
2023-01-17T23:30:34.784Z,8.40
2023-01-17T23:33:07.711Z,9.45
2023-01-17T23:35:42.075Z,11.32
2023-01-17T23:38:29.244Z,8.23
2023-01-17T23:41:24.396Z,8.03
2023-01-17T23:43:57.249Z,9.65
2023-01-17T23:46:26.623Z,8.10
2023-01-17T23:48:55.303Z,7.93
2023-01-17T23:51:22.870Z,7.65
2023-01-17T23:53:53.488Z,6.73
2023-01-17T23:56:23.196Z,6.75
2023-01-17T23:58:50.780Z,5.87
